Alyeska Resort
Hourly Weather - Base Weather Site
ALY_BASE_HR 6/23/2017
CLICK TO VIEW GRAPH!!

        DATE  TIME   Air  BATT   H2o   H2o   Rel
                    Temp  Volt  Inch Since  Hum%
                      F   AVG   1HR  0600   AVG

   6/23/2017 15:00    56 13.56  0.00  0.01    78
   6/23/2017 14:00    55 13.58  0.00  0.01    80
   6/23/2017 13:00    54 13.62  0.00  0.01    84
   6/23/2017 12:00    53 13.67  0.00  0.01    86
   6/23/2017 11:00    51 13.70  0.00  0.01    92
   6/23/2017 10:00    50 13.71  0.01  0.01    95
   6/23/2017 09:00    50 13.72  0.00  0.00    95
   6/23/2017 08:00    49 13.72  0.00  0.00    96
   6/23/2017 07:00    49 13.72  0.00  0.00    96
   6/23/2017 06:00    49 13.73  0.01  0.04    96
   6/23/2017 05:00    49 13.72  0.00  0.03    96
   6/23/2017 04:00    50 13.71  0.01  0.03    95
   6/23/2017 03:00    50 13.69  0.00  0.02    94
   6/23/2017 02:00    50 13.68  0.01  0.02    95
   6/23/2017 01:00    51 13.66  0.01  0.01    95
   6/22/2017 24:00    52 13.63  0.00  0.00    90
   6/22/2017 23:00    53 13.60  0.00  0.00    85
   6/22/2017 22:00    55 13.57  0.00  0.00    81
   6/22/2017 21:00    57 13.56  0.00  0.00    75
   6/22/2017 20:00    57 13.54  0.00  0.00    74
   6/22/2017 19:00    58 13.52  0.00  0.00    70
   6/22/2017 18:00    60 13.50  0.00  0.00    65
   6/22/2017 17:00    60 13.50  0.00  0.00    64
   6/22/2017 16:00    60 13.52  0.00  0.00    65


CLICK TO VIEW GRAPH!!